Time;durP1;ratioP1;P1;durP2;ratioP2;P2;SDS_P1;SDS_P2;PMS_P1;PMS_P2;Temp;Humidity;BMP_temperature;BMP_pressure;BME280_temperature;BME280_humidity;BME280_pressure;Samples;Min_cycle;Max_cycle;Signal;HPM_P1;HPM_P2
2023/06/04 00:00:38;;;;;;;6.10;2.30;;;;;;;13.65;48.65;99497.74;223818;181;138458;-62
2023/06/04 00:06:01;;;;;;;7.90;2.30;;;;;;;13.61;48.96;99494.59;223874;180;137450;-65
2023/06/04 00:11:05;;;;;;;6.30;2.20;;;;;;;13.60;48.83;99488.95;223842;181;143543;-66
2023/06/04 00:16:09;;;;;;;3.90;2.30;;;;;;;13.60;48.97;99485.73;223785;180;138855;-67
2023/06/04 00:21:12;;;;;;;4.90;2.30;;;;;;;13.59;48.82;99477.81;223660;181;137759;-64
2023/06/04 00:26:29;;;;;;;6.60;2.40;;;;;;;13.58;48.84;99473.02;223722;181;145067;-63
2023/06/04 00:31:33;;;;;;;6.30;2.40;;;;;;;13.55;48.81;99471.46;223629;181;140614;-61
2023/06/04 00:36:37;;;;;;;4.90;2.70;;;;;;;13.53;49.04;99470.39;223672;182;136352;-62
2023/06/04 00:41:40;;;;;;;9.20;2.50;;;;;;;13.50;49.11;99466.80;223832;181;145082;-61
2023/06/04 00:46:45;;;;;;;4.70;2.50;;;;;;;13.46;48.94;99463.70;223701;181;140068;-63
2023/06/04 00:51:48;;;;;;;4.00;2.40;;;;;;;13.43;49.15;99458.38;223721;182;138232;-62
2023/06/04 00:56:52;;;;;;;4.40;2.10;;;;;;;13.38;49.34;99454.41;223771;182;145039;-64
2023/06/04 01:02:03;;;;;;;4.90;2.40;;;;;;;13.33;49.55;99454.58;223635;181;138364;-62
2023/06/04 01:07:09;;;;;;;6.20;2.60;;;;;;;13.26;49.77;99458.78;223650;181;136291;-67
2023/06/04 01:12:12;;;;;;;3.50;2.50;;;;;;;13.20;49.91;99456.30;223772;181;145827;-63
2023/06/04 01:17:37;;;;;;;9.10;3.30;;;;;;;13.14;50.14;99459.89;223811;181;138486;-61
2023/06/04 01:22:59;;;;;;;4.60;2.20;;;;;;;13.10;50.33;99463.05;223719;181;136598;-64
2023/06/04 01:28:06;;;;;;;4.60;2.70;;;;;;;13.02;50.44;99460.83;223738;181;147111;-62
2023/06/04 01:33:14;;;;;;;9.60;2.50;;;;;;;12.97;50.67;99462.79;223654;181;139066;-64
2023/06/04 01:38:18;;;;;;;8.00;2.50;;;;;;;12.91;51.06;99463.16;223756;181;136942;-65
2023/06/04 01:43:22;;;;;;;6.20;2.40;;;;;;;12.83;51.31;99461.39;223784;181;146225;-63
2023/06/04 01:48:25;;;;;;;6.10;2.30;;;;;;;12.75;51.62;99461.89;223727;181;138494;-63
2023/06/04 01:53:29;;;;;;;5.20;2.40;;;;;;;12.72;51.82;99463.72;223700;182;137282;-61
2023/06/04 01:58:33;;;;;;;5.80;2.40;;;;;;;12.65;51.77;99459.69;223774;181;145159;-61
2023/06/04 02:03:37;;;;;;;3.80;2.50;;;;;;;12.60;51.99;99457.52;223678;181;138493;-63
2023/06/04 02:08:42;;;;;;;6.20;2.40;;;;;;;12.56;52.07;99457.58;223745;181;136513;-65
2023/06/04 02:13:45;;;;;;;6.10;2.80;;;;;;;12.50;52.10;99450.83;223737;181;146270;-63
2023/06/04 02:18:48;;;;;;;4.60;2.80;;;;;;;12.48;52.03;99455.59;223671;181;139023;-61
2023/06/04 02:23:52;;;;;;;5.40;2.50;;;;;;;12.44;52.18;99452.50;223618;181;136627;-62
2023/06/04 02:29:01;;;;;;;5.50;2.40;;;;;;;12.39;52.28;99451.59;223578;181;283506;-65
2023/06/04 02:34:04;;;;;;;5.40;2.70;;;;;;;12.33;52.47;99460.12;223677;181;138915;-62
2023/06/04 02:39:07;;;;;;;3.30;2.10;;;;;;;12.29;52.68;99458.59;223785;181;136710;-62
2023/06/04 02:44:11;;;;;;;5.10;2.40;;;;;;;12.23;52.66;99460.59;223762;181;145578;-61
2023/06/04 02:49:14;;;;;;;7.40;2.40;;;;;;;12.17;52.78;99464.34;223527;181;138242;-63
2023/06/04 02:54:18;;;;;;;4.00;2.40;;;;;;;12.11;52.98;99463.64;223733;182;137483;-62
2023/06/04 02:59:22;;;;;;;6.00;2.50;;;;;;;12.06;53.45;99464.44;223691;181;146660;-65
2023/06/04 03:04:26;;;;;;;3.60;2.40;;;;;;;12.02;53.98;99463.61;223708;181;139506;-63
2023/06/04 03:09:32;;;;;;;4.40;2.50;;;;;;;11.97;54.37;99466.60;223799;181;136540;-61
2023/06/04 03:14:36;;;;;;;5.50;2.30;;;;;;;11.91;54.49;99465.54;223672;181;145489;-60
2023/06/04 03:19:41;;;;;;;5.40;2.70;;;;;;;11.89;54.70;99461.97;223726;181;138383;-61
2023/06/04 03:24:44;;;;;;;5.60;2.80;;;;;;;11.89;54.95;99469.05;223707;181;136909;-62
2023/06/04 03:29:48;;;;;;;6.10;3.00;;;;;;;11.89;54.93;99469.03;223710;181;146437;-61
2023/06/04 03:34:52;;;;;;;4.80;2.40;;;;;;;11.91;55.03;99475.52;223676;181;138590;-62
2023/06/04 03:39:55;;;;;;;6.00;2.50;;;;;;;11.95;54.91;99477.92;223739;181;136843;-61
2023/06/04 03:44:59;;;;;;;6.30;2.50;;;;;;;11.98;54.93;99477.05;223656;181;145256;-64
2023/06/04 03:50:04;;;;;;;5.70;2.60;;;;;;;11.99;55.11;99482.83;223795;181;139044;-61
2023/06/04 03:55:08;;;;;;;4.00;2.40;;;;;;;12.03;55.26;99488.48;223730;181;136675;-63
2023/06/04 04:00:13;;;;;;;6.20;2.20;;;;;;;12.10;55.35;99487.52;223695;181;145339;-64
2023/06/04 04:05:16;;;;;;;5.10;2.20;;;;;;;12.21;55.25;99483.08;223725;181;139419;-63
2023/06/04 04:10:21;;;;;;;6.40;2.20;;;;;;;12.35;54.72;99484.19;223731;182;137790;-64
2023/06/04 04:15:24;;;;;;;5.60;2.20;;;;;;;12.49;54.41;99477.66;223821;181;145323;-62
2023/06/04 04:20:28;;;;;;;5.80;2.60;;;;;;;12.59;54.42;99475.41;223736;181;139590;-61
2023/06/04 04:25:36;;;;;;;7.40;2.40;;;;;;;12.69;54.52;99477.27;223752;181;136246;-65
2023/06/04 04:30:40;;;;;;;6.10;2.30;;;;;;;12.79;54.51;99476.08;223633;181;145034;-61
2023/06/04 04:35:44;;;;;;;4.10;2.20;;;;;;;12.92;54.57;99473.60;223796;181;138445;-64
2023/06/04 04:40:51;;;;;;;;;;;;;;;13.05;54.23;99464.57;223785;181;136749;-64
2023/06/04 04:45:55;;;;;;;3.60;2.40;;;;;;;13.19;54.06;99468.66;223849;181;145750;-64
2023/06/04 04:50:59;;;;;;;4.30;2.00;;;;;;;13.35;53.76;99466.21;223671;182;258871;-63
2023/06/04 04:56:03;;;;;;;5.50;2.40;;;;;;;13.46;53.13;99465.84;223784;181;137272;-61
2023/06/04 05:01:10;;;;;;;3.60;1.90;;;;;;;13.59;53.02;99468.20;223771;181;145738;-64
2023/06/04 05:06:15;;;;;;;3.90;2.00;;;;;;;13.67;52.33;99473.17;223742;181;138429;-60
2023/06/04 05:11:19;;;;;;;6.20;2.00;;;;;;;13.73;52.15;99480.91;223733;181;137091;-63
2023/06/04 05:16:23;;;;;;;4.20;2.20;;;;;;;13.82;52.16;99484.63;223853;181;146726;-67
2023/06/04 05:21:28;;;;;;;5.50;2.50;;;;;;;13.87;52.07;99491.73;223656;181;139906;-62
2023/06/04 05:26:37;;;;;;;5.00;2.20;;;;;;;13.98;52.07;99493.52;223738;181;136236;-62
2023/06/04 05:31:45;;;;;;;10.20;4.60;;;;;;;14.06;51.90;99491.36;223739;181;145511;-64
2023/06/04 05:36:50;;;;;;;4.30;2.10;;;;;;;14.15;51.70;99496.79;223720;181;138401;-63
2023/06/04 05:41:53;;;;;;;4.80;2.10;;;;;;;14.27;51.86;99496.67;223817;182;136049;-61
2023/06/04 05:46:57;;;;;;;6.10;2.30;;;;;;;14.37;51.75;99491.86;223744;181;145719;-60
2023/06/04 05:52:01;;;;;;;4.40;2.10;;;;;;;14.48;51.55;99490.90;223580;181;138184;-63
2023/06/04 05:57:05;;;;;;;4.60;2.50;;;;;;;14.57;50.92;99490.64;223608;181;137428;-62
2023/06/04 06:02:09;;;;;;;3.80;2.20;;;;;;;14.67;50.86;99487.05;223628;181;145481;-63
2023/06/04 06:07:13;;;;;;;4.30;2.20;;;;;;;14.77;50.82;99490.27;223730;181;138167;-63
2023/06/04 06:12:16;;;;;;;5.60;2.30;;;;;;;14.87;50.58;99495.08;223813;181;136775;-62
2023/06/04 06:17:20;;;;;;;6.70;2.30;;;;;;;14.97;50.30;99495.63;223763;181;145100;-62
2023/06/04 06:22:24;;;;;;;4.80;2.20;;;;;;;15.12;50.29;99491.33;223658;181;139040;-62
2023/06/04 06:27:27;;;;;;;3.50;1.80;;;;;;;15.25;49.91;99491.26;223717;181;136460;-61
2023/06/04 06:32:30;;;;;;;3.30;1.90;;;;;;;15.34;49.55;99487.73;223705;181;145328;-62
2023/06/04 06:37:34;;;;;;;3.00;1.80;;;;;;;15.45;49.33;99488.50;223747;181;138902;-62
2023/06/04 06:42:37;;;;;;;3.60;1.90;;;;;;;15.61;48.83;99496.64;223777;181;137124;-62
2023/06/04 06:47:41;;;;;;;3.40;1.80;;;;;;;15.76;47.73;99496.77;223630;181;144677;-62
2023/06/04 06:52:46;;;;;;;6.00;1.90;;;;;;;15.86;47.03;99491.00;223727;181;138297;-61
2023/06/04 06:57:49;;;;;;;213.30;149.60;;;;;;;16.01;46.63;99492.66;223644;181;139115;-65
2023/06/04 07:02:53;;;;;;;15.00;10.00;;;;;;;16.19;46.26;99491.61;223649;181;145688;-63
2023/06/04 07:08:02;;;;;;;17.40;12.70;;;;;;;16.35;45.26;99490.08;223726;181;139331;-63
2023/06/04 07:13:09;;;;;;;8.40;3.90;;;;;;;16.51;45.29;99488.95;223797;181;136981;-62
2023/06/04 07:18:13;;;;;;;10.00;2.00;;;;;;;16.68;43.86;99489.57;223709;181;145154;-63
2023/06/04 07:23:16;;;;;;;7.60;3.10;;;;;;;16.77;43.32;99489.58;223626;181;138260;-61
2023/06/04 07:33:31;;;;;;;7.80;2.50;;;;;;;17.13;43.12;99489.17;221881;193;667298;-63
2023/06/04 07:38:34;;;;;;;24.30;13.30;;;;;;;17.26;42.97;99485.92;223874;181;135852;-64
2023/06/04 07:43:37;;;;;;;11.90;3.30;;;;;;;17.35;41.90;99482.35;223876;177;143505;-63
2023/06/04 07:48:43;;;;;;;8.80;2.30;;;;;;;17.47;42.36;99483.26;223813;181;138970;-64
2023/06/04 07:53:46;;;;;;;14.40;2.40;;;;;;;17.63;42.48;99481.81;223929;181;137119;-64
2023/06/04 07:58:50;;;;;;;11.30;2.60;;;;;;;17.76;42.07;99479.98;223766;181;144238;-63
2023/06/04 08:03:53;;;;;;;80.50;61.10;;;;;;;17.85;40.61;99481.23;223860;181;138727;-63
2023/06/04 08:08:56;;;;;;;18.10;5.40;;;;;;;17.97;41.17;99480.73;223857;181;137540;-63
2023/06/04 08:14:05;;;;;;;17.90;2.60;;;;;;;18.11;40.36;99485.05;223929;180;143409;-63
2023/06/04 08:19:10;;;;;;;10.40;3.10;;;;;;;18.23;40.32;99485.52;223994;181;139103;-63
2023/06/04 08:24:13;;;;;;;11.40;2.80;;;;;;;18.42;40.98;99485.13;224120;180;137035;-63
2023/06/04 08:33:34;;;;;;;9.60;2.40;;;;;;;18.71;41.82;99484.89;221633;193;676446;-61
2023/06/04 08:38:37;;;;;;;7.10;2.30;;;;;;;18.84;42.38;99482.34;223696;183;136480;-62
2023/06/04 08:43:43;;;;;;;8.30;2.10;;;;;;;18.99;40.37;99484.58;223626;183;143614;-65
2023/06/04 08:48:49;;;;;;;5.80;2.20;;;;;;;19.08;39.52;99481.77;223662;183;139987;-67
2023/06/04 08:53:54;;;;;;;;;;;;;;;19.23;39.56;99492.12;223595;182;136652;-64
2023/06/04 08:59:02;;;;;;;8.20;2.20;;;;;;;19.24;36.68;99486.04;223809;181;143651;-63
2023/06/04 09:04:07;;;;;;;5.90;1.70;;;;;;;19.26;36.23;99488.05;223712;181;138721;-64
2023/06/04 09:09:17;;;;;;;6.50;2.00;;;;;;;19.35;35.95;99484.90;223702;181;136759;-62
2023/06/04 09:14:20;;;;;;;;;;;;;;;19.52;39.44;99485.99;223799;181;143535;-65
2023/06/04 09:19:27;;;;;;;7.20;2.10;;;;;;;19.61;37.59;99488.30;223777;182;138437;-67
2023/06/04 09:24:40;;;;;;;16.90;7.70;;;;;;;19.76;37.13;99485.96;223627;181;137227;-65
2023/06/04 09:29:51;;;;;;;28.00;17.10;;;;;;;19.97;36.59;99486.92;223661;181;146085;-63
2023/06/04 09:35:19;;;;;;;7.20;2.40;;;;;;;20.11;34.87;99483.61;223608;182;138325;-65
2023/06/04 09:40:37;;;;;;;16.70;5.20;;;;;;;20.30;36.82;99483.44;223705;182;136535;-63
2023/06/04 09:45:41;;;;;;;13.80;3.00;;;;;;;20.39;37.77;99478.09;223547;182;146464;-64
2023/06/04 09:50:46;;;;;;;3.70;1.90;;;;;;;20.46;36.65;99474.52;223659;183;138615;-66
2023/06/04 09:56:01;;;;;;;3.40;1.30;;;;;;;20.58;35.16;99473.80;223704;182;137940;-68
2023/06/04 10:01:05;;;;;;;9.70;3.10;;;;;;;20.73;33.36;99466.67;223682;182;148250;-62
2023/06/04 10:06:10;;;;;;;6.10;1.70;;;;;;;20.86;34.44;99465.59;223729;182;139288;-63
2023/06/04 10:11:17;;;;;;;13.60;4.90;;;;;;;20.94;33.90;99464.06;223856;182;136929;-65
2023/06/04 10:16:38;;;;;;;5.40;2.20;;;;;;;21.10;33.30;99459.77;223689;183;145183;-63
2023/06/04 10:21:43;;;;;;;6.30;1.90;;;;;;;21.39;32.42;99456.91;223739;183;138420;-63
2023/06/04 10:26:51;;;;;;;3.40;1.50;;;;;;;21.74;31.55;99452.70;223677;182;136605;-64
2023/06/04 10:31:55;;;;;;;8.60;1.60;;;;;;;22.03;29.71;99451.14;223733;182;145133;-64
2023/06/04 10:36:59;;;;;;;4.40;2.00;;;;;;;22.20;29.92;99452.98;223718;182;138422;-63
2023/06/04 10:42:03;;;;;;;5.90;2.40;;;;;;;22.44;30.81;99455.57;223707;183;136584;-64
2023/06/04 10:47:17;;;;;;;11.20;2.10;;;;;;;22.60;29.92;99446.46;223717;182;146888;-63
2023/06/04 10:52:21;;;;;;;142.40;96.00;;;;;;;22.68;30.43;99445.25;223620;182;138352;-64
2023/06/04 10:57:25;;;;;;;7.80;3.90;;;;;;;22.83;32.03;99448.60;223663;182;138703;-64
2023/06/04 11:02:28;;;;;;;83.50;60.20;;;;;;;22.96;31.01;99446.16;223704;182;145780;-64
2023/06/04 11:07:44;;;;;;;6.70;2.70;;;;;;;23.07;30.72;99447.83;223616;182;138813;-63
2023/06/04 11:12:53;;;;;;;36.20;24.60;;;;;;;23.19;30.53;99437.83;223636;183;136662;-67
2023/06/04 11:18:00;;;;;;;10.20;2.50;;;;;;;23.32;30.53;99441.36;223645;182;145901;-65
2023/06/04 11:23:05;;;;;;;4.60;2.10;;;;;;;23.45;30.19;99438.69;223699;182;140051;-63
2023/06/04 11:28:15;;;;;;;4.20;2.10;;;;;;;23.60;29.98;99440.80;223642;182;136897;-67
2023/06/04 11:33:18;;;;;;;3.00;1.40;;;;;;;23.69;28.98;99445.15;223822;182;146900;-65
2023/06/04 11:38:22;;;;;;;4.70;1.60;;;;;;;23.75;29.01;99441.65;223740;182;138307;-65
2023/06/04 11:43:27;;;;;;;4.20;1.30;;;;;;;23.91;28.30;99440.45;223579;182;136644;-64
2023/06/04 11:48:30;;;;;;;43.20;33.40;;;;;;;24.06;27.72;99434.08;223719;183;145637;-66
2023/06/04 11:53:36;;;;;;;18.70;12.90;;;;;;;24.18;28.01;99435.45;223598;182;140794;-67
2023/06/04 11:58:40;;;;;;;7.80;4.50;;;;;;;24.32;28.77;99433.86;223779;181;138584;-66
2023/06/04 12:03:43;;;;;;;5.10;2.10;;;;;;;24.48;28.21;99430.75;223344;182;146021;-68
2023/06/04 12:08:52;;;;;;;5.80;3.30;;;;;;;24.68;28.49;99428.72;223613;181;139482;-66
2023/06/04 12:13:56;;;;;;;7.40;2.50;;;;;;;24.85;28.08;99420.95;223655;182;136992;-70
2023/06/04 12:19:09;;;;;;;7.70;2.00;;;;;;;25.01;27.95;99420.66;223681;181;145542;-67
2023/06/04 12:24:14;;;;;;;142.00;107.60;;;;;;;25.18;27.32;99414.02;223583;183;138780;-66
2023/06/04 12:29:19;;;;;;;11.10;8.70;;;;;;;25.37;27.32;99413.73;223701;181;138438;-63
2023/06/04 12:34:23;;;;;;;5.30;2.50;;;;;;;25.51;26.64;99415.80;223716;182;145757;-68
2023/06/04 12:39:28;;;;;;;3.60;2.20;;;;;;;25.77;26.73;99414.10;223639;182;138466;-65
2023/06/04 12:44:32;;;;;;;3.50;1.80;;;;;;;25.97;25.75;99413.33;223742;182;137570;-66
2023/06/04 12:49:38;;;;;;;4.00;1.80;;;;;;;26.20;24.97;99411.83;223728;182;145694;-65
2023/06/04 12:54:44;;;;;;;5.60;1.50;;;;;;;26.43;25.64;99408.29;223687;182;138302;-64
2023/06/04 12:59:47;;;;;;;2.40;1.70;;;;;;;26.69;24.64;99411.55;223731;182;136799;-64
2023/06/04 13:04:54;;;;;;;3.90;1.40;;;;;;;26.85;23.12;99412.05;223617;182;147341;-64
2023/06/04 13:09:57;;;;;;;3.20;1.50;;;;;;;27.00;23.26;99408.16;223713;182;138954;-65
2023/06/04 13:15:02;;;;;;;2.40;1.60;;;;;;;26.79;23.44;99406.97;223763;182;136734;-63
2023/06/04 13:20:05;;;;;;;;;;;;;;;26.73;23.65;99407.02;223755;181;145286;-63
2023/06/04 13:25:09;;;;;;;292.20;259.80;;;;;;;26.76;23.46;99404.45;223863;182;139834;-66
2023/06/04 13:33:34;;;;;;;5.20;3.10;;;;;;;26.98;22.98;99403.04;221959;193;666517;-67
2023/06/04 13:38:37;;;;;;;5.60;4.20;;;;;;;26.97;22.46;99405.64;223473;185;136517;-68
2023/06/04 13:43:40;;;;;;;10.50;2.80;;;;;;;27.08;23.13;99396.24;223010;185;143465;-67
2023/06/04 13:48:43;;;;;;;3.70;2.40;;;;;;;27.36;22.91;99391.80;223736;183;139179;-66
2023/06/04 13:53:47;;;;;;;4.00;2.40;;;;;;;27.61;22.37;99386.45;223803;182;136545;-65
2023/06/04 13:58:50;;;;;;;7.10;1.70;;;;;;;27.72;22.43;99377.36;223811;182;144157;-64
2023/06/04 14:03:54;;;;;;;13.20;8.50;;;;;;;27.62;22.65;99375.61;223641;182;138395;-64
2023/06/04 14:08:58;;;;;;;3.60;2.20;;;;;;;27.37;22.66;99379.29;223849;183;136995;-67
2023/06/04 14:20:19;;;;;;;10.80;8.50;;;;;;;26.65;23.28;99373.05;223156;181;140166;-63
2023/06/04 14:25:22;;;;;;;8.90;2.80;;;;;;;26.07;23.46;99370.49;223513;205;137922;-65
2023/06/04 14:30:25;;;;;;;2.00;1.60;;;;;;;25.56;24.23;99371.70;223396;182;145577;-64
2023/06/04 14:35:29;;;;;;;1.70;1.50;;;;;;;25.24;24.25;99369.55;223453;182;139239;-64
2023/06/04 14:40:35;;;;;;;4.70;1.60;;;;;;;25.12;24.73;99365.45;223522;182;136736;-64
2023/06/04 14:45:40;;;;;;;3.60;1.60;;;;;;;24.99;25.29;99363.47;223448;182;145202;-63
2023/06/04 14:50:43;;;;;;;108.40;91.10;;;;;;;24.81;25.74;99358.84;222854;182;140247;-65
2023/06/04 14:55:47;;;;;;;10.80;4.00;;;;;;;24.58;26.10;99356.05;223328;183;137182;-62
2023/06/04 15:00:51;;;;;;;3.30;1.80;;;;;;;24.28;25.70;99354.72;223808;181;146098;-64
2023/06/04 15:05:55;;;;;;;8.00;1.70;;;;;;;24.08;25.86;99353.35;223592;181;137495;-68
2023/06/04 15:11:15;;;;;;;5.30;1.60;;;;;;;23.99;25.74;99351.98;223523;181;136972;-68
2023/06/04 15:16:18;;;;;;;2.90;1.80;;;;;;;24.00;25.90;99352.58;223563;181;147420;-70
2023/06/04 15:21:22;;;;;;;3.40;1.40;;;;;;;24.03;26.13;99348.31;223388;181;139234;-66
2023/06/04 15:26:31;;;;;;;2.50;1.50;;;;;;;23.92;26.11;99347.59;223521;181;136546;-67
2023/06/04 15:31:38;;;;;;;11.90;1.70;;;;;;;23.79;26.64;99352.84;223658;181;145221;-67
2023/06/04 15:36:42;;;;;;;89.70;79.50;;;;;;;23.64;26.43;99345.98;223532;214;138825;-66
2023/06/04 15:41:45;;;;;;;6.70;5.40;;;;;;;23.65;26.60;99343.00;223529;181;137060;-66
2023/06/04 15:46:50;;;;;;;3.30;1.70;;;;;;;23.68;26.39;99335.89;223558;181;145909;-65
2023/06/04 15:51:53;;;;;;;2.90;1.90;;;;;;;23.71;26.69;99336.13;223407;181;138799;-66
2023/06/04 15:56:56;;;;;;;2.80;1.50;;;;;;;23.71;26.54;99341.36;223560;180;137508;-64
2023/06/04 16:02:00;;;;;;;3.30;1.60;;;;;;;23.64;26.70;99342.67;223626;181;145802;-66
2023/06/04 16:07:04;;;;;;;6.30;3.90;;;;;;;23.47;26.73;99341.85;223734;196;139621;-65
2023/06/04 16:12:08;;;;;;;7.50;3.80;;;;;;;23.32;27.08;99342.95;223643;180;137749;-66
2023/06/04 16:17:11;;;;;;;92.80;74.50;;;;;;;23.26;26.88;99339.34;223536;192;145301;-68
2023/06/04 16:22:15;;;;;;;10.10;5.50;;;;;;;23.22;27.18;99339.55;223561;181;138483;-64
2023/06/04 16:27:22;;;;;;;7.70;1.90;;;;;;;23.08;27.94;99344.38;223478;180;136740;-66
2023/06/04 16:32:31;;;;;;;4.90;2.00;;;;;;;23.02;27.10;99342.89;223527;181;145837;-63
2023/06/04 16:37:38;;;;;;;6.90;2.10;;;;;;;22.96;27.94;99350.04;223584;181;138795;-65
2023/06/04 16:42:42;;;;;;;31.20;7.80;;;;;;;22.83;28.49;99352.13;223566;214;137549;-65
2023/06/04 16:47:45;;;;;;;16.40;4.20;;;;;;;22.70;28.24;99353.73;223623;181;145323;-66
2023/06/04 16:52:49;;;;;;;5.50;2.60;;;;;;;22.61;28.11;99353.44;223562;181;139532;-61
2023/06/04 16:57:53;;;;;;;5.90;1.90;;;;;;;22.54;28.47;99360.34;223613;181;137065;-64
2023/06/04 17:02:57;;;;;;;3.10;2.40;;;;;;;22.43;28.63;99358.60;223589;181;145263;-65
2023/06/04 17:08:01;;;;;;;4.60;2.30;;;;;;;22.34;28.64;99362.80;223464;181;140880;-66
2023/06/04 17:13:06;;;;;;;3.70;1.30;;;;;;;22.28;28.72;99360.91;223619;214;136760;-64
2023/06/04 17:18:11;;;;;;;3.60;1.60;;;;;;;22.31;28.74;99365.27;223451;181;145458;-66
2023/06/04 17:23:21;;;;;;;3.70;1.60;;;;;;;22.33;29.02;99364.23;223422;181;138872;-65
2023/06/04 17:28:26;;;;;;;6.40;1.40;;;;;;;22.30;29.03;99368.95;223525;181;136677;-65
2023/06/04 17:33:29;;;;;;;2.60;1.30;;;;;;;22.27;28.95;99374.80;223596;181;146556;-63
2023/06/04 17:38:35;;;;;;;3.20;1.30;;;;;;;22.24;28.98;99375.63;223570;190;138898;-68
2023/06/04 17:43:41;;;;;;;4.10;1.30;;;;;;;22.19;29.61;99378.45;223630;181;136792;-67
2023/06/04 17:48:52;;;;;;;6.80;2.10;;;;;;;22.14;30.13;99378.96;223499;181;146750;-68
2023/06/04 17:53:59;;;;;;;3.60;1.40;;;;;;;22.08;29.99;99380.52;223499;203;139367;-67
2023/06/04 17:59:07;;;;;;;515.90;416.10;;;;;;;22.00;30.44;99377.00;223517;184;137187;-69
2023/06/04 18:04:10;;;;;;;14.60;11.20;;;;;;;21.96;30.76;99375.64;223514;181;145351;-66
2023/06/04 18:09:14;;;;;;;10.70;2.80;;;;;;;21.87;30.66;99377.24;223561;215;140084;-67
2023/06/04 18:14:18;;;;;;;3.10;1.80;;;;;;;21.75;30.57;99386.27;223621;181;136919;-69
2023/06/04 18:19:21;;;;;;;3.70;1.60;;;;;;;21.62;31.00;99388.36;223761;215;145929;-69
2023/06/04 18:24:27;;;;;;;2.50;1.30;;;;;;;21.49;30.64;99384.57;223610;181;139309;-67
2023/06/04 18:33:31;;;;;;;5.40;1.30;;;;;;;21.29;31.16;99389.48;220709;194;676649;-67
2023/06/04 18:38:34;;;;;;;3.60;1.50;;;;;;;21.13;31.55;99390.01;223188;184;135935;-66
2023/06/04 18:43:37;;;;;;;7.80;1.80;;;;;;;20.97;31.82;99393.56;223130;183;143655;-65
2023/06/04 18:48:41;;;;;;;5.00;1.60;;;;;;;20.84;32.05;99406.63;223252;218;138438;-65
2023/06/04 18:53:44;;;;;;;70.50;53.00;;;;;;;20.74;32.67;99408.48;223335;184;136974;-64
2023/06/04 18:58:50;;;;;;;4.40;3.00;;;;;;;20.69;33.28;99411.36;222462;183;143640;-64
2023/06/04 19:03:53;;;;;;;6.10;2.10;;;;;;;20.53;32.94;99415.62;223418;184;139074;-67
2023/06/04 19:08:57;;;;;;;3.30;2.10;;;;;;;20.37;33.38;99424.53;222784;184;136478;-68
2023/06/04 19:14:00;;;;;;;4.90;1.80;;;;;;;20.22;33.57;99431.59;223162;183;143511;-65
2023/06/04 19:19:08;;;;;;;3.80;1.80;;;;;;;20.10;33.55;99443.15;223327;217;138434;-63
2023/06/04 19:24:12;;;;;;;4.80;2.00;;;;;;;19.97;33.67;99443.49;223281;217;137775;-60
2023/06/04 19:29:16;;;;;;;11.00;1.90;;;;;;;19.85;33.75;99442.46;223178;184;145762;-59
2023/06/04 19:34:19;;;;;;;4.40;2.00;;;;;;;19.72;33.92;99443.73;223273;184;139083;-61
2023/06/04 19:39:22;;;;;;;50.30;38.00;;;;;;;19.60;34.65;99448.00;223405;184;136532;-61
2023/06/04 19:44:25;;;;;;;19.10;14.20;;;;;;;19.52;35.05;99452.40;223495;184;145845;-63
2023/06/04 19:49:28;;;;;;;5.30;2.60;;;;;;;19.40;35.04;99457.59;223427;184;139459;-67
2023/06/04 19:54:32;;;;;;;9.30;2.30;;;;;;;19.27;35.19;99456.51;223637;184;136775;-64
2023/06/04 19:59:39;;;;;;;3.80;2.20;;;;;;;19.14;35.48;99457.86;223714;181;145278;-64
2023/06/04 20:04:42;;;;;;;3.90;1.80;;;;;;;19.00;35.36;99466.08;223646;182;138587;-63
2023/06/04 20:09:45;;;;;;;7.20;2.00;;;;;;;18.88;35.86;99469.03;223612;182;138093;-64
2023/06/04 20:14:49;;;;;;;3.90;2.30;;;;;;;18.73;36.35;99470.30;223646;183;145266;-64
2023/06/04 20:19:54;;;;;;;6.20;2.60;;;;;;;18.58;36.90;99466.02;223643;182;138785;-62
2023/06/04 20:24:57;;;;;;;4.60;3.00;;;;;;;18.45;37.24;99467.02;223738;182;136167;-66
2023/06/04 20:30:01;;;;;;;3.50;2.20;;;;;;;18.34;37.57;99471.63;223492;183;145974;-64
2023/06/04 20:35:04;;;;;;;5.60;2.60;;;;;;;18.20;38.06;99477.09;223463;183;138412;-63
2023/06/04 20:40:08;;;;;;;7.20;2.70;;;;;;;18.10;38.55;99477.81;223490;184;136437;-65
2023/06/04 20:45:11;;;;;;;4.70;3.10;;;;;;;17.97;39.03;99476.25;223411;183;145971;-63
2023/06/04 20:50:14;;;;;;;8.20;2.60;;;;;;;17.85;39.85;99478.33;223359;216;138379;-64
2023/06/04 20:55:17;;;;;;;4.50;2.80;;;;;;;17.73;40.44;99477.86;223477;216;136496;-69
2023/06/04 21:00:20;;;;;;;6.60;3.10;;;;;;;17.62;41.57;99476.27;223469;183;145957;-65
2023/06/04 21:05:24;;;;;;;9.90;3.80;;;;;;;17.51;42.34;99479.37;223443;183;140308;-64
2023/06/04 21:10:27;;;;;;;6.70;3.60;;;;;;;17.38;43.27;99480.80;223487;183;136944;-67
2023/06/04 21:15:31;;;;;;;7.90;3.40;;;;;;;17.26;43.79;99480.90;223440;183;145401;-63
2023/06/04 21:20:48;;;;;;;9.60;4.20;;;;;;;17.12;44.88;99492.51;223398;216;143039;-65
2023/06/04 21:25:51;;;;;;;11.50;3.50;;;;;;;16.97;45.28;99492.42;223437;183;137553;-65
2023/06/04 21:30:54;;;;;;;9.50;3.10;;;;;;;16.82;45.31;99496.53;223524;185;145510;-69
2023/06/04 21:35:58;;;;;;;5.50;3.10;;;;;;;16.68;45.63;99493.48;223386;182;139330;-67
2023/06/04 21:41:01;;;;;;;7.30;3.10;;;;;;;16.55;46.01;99497.73;223477;183;136545;-66
2023/06/04 21:46:04;;;;;;;5.60;3.20;;;;;;;16.44;46.12;99501.34;223331;182;145995;-66
2023/06/04 21:51:07;;;;;;;5.00;2.80;;;;;;;16.32;46.27;99502.77;223389;182;138422;-66
2023/06/04 21:56:11;;;;;;;7.70;3.10;;;;;;;16.22;46.39;99508.05;223468;183;137052;-67
2023/06/04 22:01:14;;;;;;;5.00;2.90;;;;;;;16.11;46.89;99511.77;223465;205;145985;-67
2023/06/04 22:06:17;;;;;;;6.70;2.80;;;;;;;16.02;47.06;99512.79;223381;209;140046;-67
2023/06/04 22:11:21;;;;;;;5.70;3.00;;;;;;;15.93;47.42;99517.30;223536;184;140482;-64
2023/06/04 22:16:24;;;;;;;5.70;3.20;;;;;;;15.83;47.72;99521.98;223434;183;145925;-69
2023/06/04 22:21:27;;;;;;;9.20;3.50;;;;;;;15.75;48.23;99524.89;223335;183;138467;-69
2023/06/04 22:26:30;;;;;;;8.20;3.40;;;;;;;15.68;48.53;99520.41;223334;183;136783;-74
2023/06/04 22:31:40;;;;;;;8.60;4.40;;;;;;;15.61;49.01;99523.09;223470;206;144922;-66
2023/06/04 22:36:44;;;;;;;9.10;4.40;;;;;;;15.53;49.17;99528.34;223495;183;139136;-65
2023/06/04 22:41:47;;;;;;;12.00;4.30;;;;;;;15.42;49.32;99528.64;223548;182;136564;-66
2023/06/04 22:46:51;;;;;;;10.40;4.40;;;;;;;15.35;49.75;99531.43;223624;182;145210;-69
2023/06/04 22:51:54;;;;;;;8.60;4.00;;;;;;;15.31;49.89;99522.83;223646;182;139055;-65
2023/06/04 22:56:57;;;;;;;7.10;4.00;;;;;;;15.21;50.33;99527.29;223733;183;137527;-68
2023/06/04 23:02:00;;;;;;;8.80;4.00;;;;;;;15.13;50.51;99528.63;223643;182;145027;-66
2023/06/04 23:07:04;;;;;;;9.90;4.00;;;;;;;15.03;50.82;99528.83;223698;182;139602;-68
2023/06/04 23:12:08;;;;;;;9.50;3.60;;;;;;;14.96;50.89;99525.58;223617;182;137423;-65
2023/06/04 23:17:11;;;;;;;9.40;3.50;;;;;;;14.89;51.11;99530.34;223612;182;145650;-63
2023/06/04 23:22:15;;;;;;;8.00;3.60;;;;;;;14.83;51.30;99532.34;223639;183;138300;-65
2023/06/04 23:27:18;;;;;;;7.80;3.20;;;;;;;14.75;51.65;99534.20;223660;183;137849;-65
2023/06/04 23:32:21;;;;;;;11.90;3.90;;;;;;;14.69;51.70;99530.34;223733;183;145606;-63
2023/06/04 23:37:25;;;;;;;5.00;3.00;;;;;;;14.64;51.99;99523.02;223769;182;138628;-66
2023/06/04 23:42:28;;;;;;;9.30;3.00;;;;;;;14.61;52.14;99522.65;223660;182;137208;-66
2023/06/04 23:47:31;;;;;;;6.10;3.00;;;;;;;14.55;52.44;99526.67;223643;183;146868;-64
2023/06/04 23:52:34;;;;;;;6.20;3.40;;;;;;;14.49;52.39;99529.09;223686;182;138431;-67
2023/06/04 23:57:37;;;;;;;8.10;3.30;;;;;;;14.41;52.69;99526.03;223639;182;139736;-65
